createdAt,value
2023-02-25T00:01:29.686Z,11.60
2023-02-25T00:03:59.243Z,11.60
2023-02-25T00:06:27.563Z,11.60
2023-02-25T00:08:56.224Z,11.60
2023-02-25T00:11:27.476Z,11.60
2023-02-25T00:13:55.756Z,11.60
2023-02-25T00:16:26.140Z,11.60
2023-02-25T00:18:58.199Z,11.70
2023-02-25T00:21:29.621Z,11.70
2023-02-25T00:24:04.418Z,11.70
2023-02-25T00:26:43.895Z,11.70
2023-02-25T00:29:12.209Z,11.70
2023-02-25T00:31:40.600Z,11.70
2023-02-25T00:34:08.936Z,11.70
2023-02-25T00:36:37.295Z,11.70
2023-02-25T00:39:05.641Z,11.70
2023-02-25T00:41:33.836Z,11.70
2023-02-25T00:44:03.843Z,11.70
2023-02-25T00:46:33.121Z,11.70
2023-02-25T00:49:02.320Z,11.70
2023-02-25T00:51:32.139Z,11.70
2023-02-25T00:54:00.852Z,11.70
2023-02-25T00:56:29.220Z,11.70
2023-02-25T00:58:57.473Z,11.70
2023-02-25T01:01:28.891Z,11.70
2023-02-25T01:03:58.733Z,11.70
2023-02-25T01:06:28.518Z,11.70
2023-02-25T01:08:57.954Z,11.70
2023-02-25T01:11:29.407Z,11.70
2023-02-25T01:13:59.171Z,11.80
2023-02-25T01:16:31.682Z,11.80
2023-02-25T01:19:02.936Z,11.80
2023-02-25T01:21:34.346Z,11.80
2023-02-25T01:24:06.131Z,11.80
2023-02-25T01:26:36.573Z,11.80
2023-02-25T01:29:08.248Z,11.80
2023-02-25T01:31:38.276Z,11.80
2023-02-25T01:34:08.178Z,11.80
2023-02-25T01:36:36.701Z,11.80
2023-02-25T01:39:05.446Z,11.80
2023-02-25T01:41:35.821Z,11.80
2023-02-25T01:44:10.609Z,11.80
2023-02-25T01:46:41.572Z,11.80
2023-02-25T01:49:16.364Z,11.80
2023-02-25T01:51:47.286Z,11.80
2023-02-25T01:54:16.711Z,11.80
2023-02-25T01:56:49.698Z,11.80
2023-02-25T01:59:19.142Z,11.80
2023-02-25T02:01:49.014Z,11.80
2023-02-25T02:04:18.949Z,11.80
2023-02-25T02:06:49.913Z,11.80
2023-02-25T02:09:21.169Z,11.80
2023-02-25T02:11:49.418Z,11.80
2023-02-25T02:14:21.796Z,11.80
2023-02-25T02:17:22.477Z,11.80
2023-02-25T02:20:14.935Z,11.80
2023-02-25T02:22:56.145Z,11.80
2023-02-25T02:25:52.921Z,11.80
2023-02-25T02:28:51.962Z,11.80
2023-02-25T02:31:50.163Z,11.80
2023-02-25T02:34:30.109Z,11.80
2023-02-25T02:37:08.943Z,11.80
2023-02-25T02:39:48.498Z,11.80
2023-02-25T02:42:27.580Z,11.80
2023-02-25T02:45:03.831Z,11.70
2023-02-25T02:47:36.274Z,11.70
2023-02-25T02:50:08.895Z,11.70
2023-02-25T02:52:41.722Z,11.70
2023-02-25T02:55:22.585Z,11.70
2023-02-25T02:57:52.720Z,11.70
2023-02-25T03:00:26.704Z,11.70
2023-02-25T03:03:01.085Z,11.70
2023-02-25T03:05:32.389Z,11.70
2023-02-25T03:08:07.814Z,11.70
2023-02-25T03:10:36.296Z,11.70
2023-02-25T03:13:04.672Z,11.60
2023-02-25T03:15:34.561Z,11.60
2023-02-25T03:18:08.075Z,11.60
2023-02-25T03:20:41.590Z,11.60
2023-02-25T03:23:13.603Z,11.60
2023-02-25T03:25:47.855Z,11.60
2023-02-25T03:28:26.217Z,11.60
2023-02-25T03:31:00.259Z,11.50
2023-02-25T03:33:35.809Z,11.50
2023-02-25T03:36:11.070Z,11.50
2023-02-25T03:38:43.780Z,11.50
2023-02-25T03:41:12.895Z,11.40
2023-02-25T03:43:45.486Z,11.40
2023-02-25T03:46:15.283Z,11.40
2023-02-25T03:48:45.798Z,11.30
2023-02-25T03:51:17.393Z,11.40
2023-02-25T03:53:45.670Z,11.30
2023-02-25T03:56:14.176Z,11.30
2023-02-25T03:58:44.445Z,11.20
2023-02-25T04:01:17.554Z,11.20
2023-02-25T04:03:47.332Z,11.20
2023-02-25T04:06:16.347Z,11.00
2023-02-25T04:08:44.505Z,10.90
2023-02-25T04:11:12.629Z,10.90
2023-02-25T04:13:40.917Z,11.00
2023-02-25T04:16:09.621Z,11.00
2023-02-25T04:18:38.121Z,11.00
2023-02-25T04:21:08.174Z,11.10
2023-02-25T04:23:37.015Z,11.10
2023-02-25T04:26:05.505Z,11.10
2023-02-25T04:28:33.762Z,11.10
2023-02-25T04:31:02.254Z,11.10
2023-02-25T04:33:30.583Z,11.10
2023-02-25T04:35:58.849Z,11.10
2023-02-25T04:38:28.514Z,11.10
2023-02-25T04:40:56.687Z,11.10
2023-02-25T04:43:24.885Z,11.10
2023-02-25T04:45:55.654Z,11.10
2023-02-25T04:48:24.475Z,11.10
2023-02-25T04:50:52.727Z,11.10
2023-02-25T04:53:21.145Z,11.10
2023-02-25T04:55:50.781Z,11.10
2023-02-25T04:58:19.146Z,11.10
2023-02-25T05:00:49.360Z,11.00
2023-02-25T05:03:17.671Z,11.00
2023-02-25T05:05:46.187Z,11.00
2023-02-25T05:08:14.401Z,11.00
2023-02-25T05:10:42.574Z,11.00
2023-02-25T05:13:12.166Z,11.00
2023-02-25T05:15:40.468Z,11.00
2023-02-25T05:18:08.965Z,10.90
2023-02-25T05:20:42.348Z,10.90
2023-02-25T05:23:10.887Z,10.90
2023-02-25T05:25:41.296Z,10.90
2023-02-25T05:28:11.809Z,10.90
2023-02-25T05:30:41.108Z,10.80
2023-02-25T05:33:09.936Z,10.80
2023-02-25T05:35:41.320Z,10.80
2023-02-25T05:38:09.585Z,10.80
2023-02-25T05:40:39.704Z,10.80
2023-02-25T05:43:09.116Z,10.80
2023-02-25T05:45:38.791Z,10.80
2023-02-25T05:48:07.403Z,10.80
2023-02-25T05:50:41.728Z,10.70
2023-02-25T05:53:10.907Z,10.80
2023-02-25T05:55:42.905Z,10.70
2023-02-25T05:58:11.519Z,10.70
2023-02-25T06:00:41.213Z,10.70
2023-02-25T06:03:09.573Z,10.70
2023-02-25T06:05:41.557Z,10.70
2023-02-25T06:08:10.215Z,10.70
2023-02-25T06:10:39.385Z,10.70
2023-02-25T06:13:07.880Z,10.70
2023-02-25T06:15:38.166Z,10.70
2023-02-25T06:18:07.930Z,10.70
2023-02-25T06:20:36.312Z,10.70
2023-02-25T06:23:04.830Z,10.70
2023-02-25T06:25:33.584Z,10.70
2023-02-25T06:28:03.139Z,10.70
2023-02-25T06:30:32.207Z,10.70
2023-02-25T06:33:00.477Z,10.70
2023-02-25T06:35:30.581Z,10.70
2023-02-25T06:37:59.743Z,10.70
2023-02-25T06:40:28.592Z,10.70
2023-02-25T06:42:56.838Z,10.70
2023-02-25T06:45:25.062Z,10.70
2023-02-25T06:47:53.294Z,10.70
2023-02-25T06:50:21.541Z,10.70
2023-02-25T06:52:51.116Z,10.70
2023-02-25T06:55:19.569Z,10.70
2023-02-25T06:57:47.815Z,10.70
2023-02-25T07:00:16.607Z,10.70
2023-02-25T07:02:44.864Z,10.70
2023-02-25T07:05:13.132Z,10.80
2023-02-25T07:07:41.453Z,10.80
2023-02-25T07:10:12.699Z,10.80
2023-02-25T07:12:40.987Z,10.80
2023-02-25T07:15:10.758Z,10.80
2023-02-25T07:17:39.379Z,10.80
2023-02-25T07:20:08.853Z,10.90
2023-02-25T07:22:37.009Z,10.90
2023-02-25T07:25:07.786Z,10.90
2023-02-25T07:27:37.385Z,11.00
2023-02-25T07:30:06.348Z,11.00
2023-02-25T07:32:34.722Z,11.00
2023-02-25T07:35:03.204Z,11.00
2023-02-25T07:37:31.392Z,11.10
2023-02-25T07:40:00.475Z,11.10
2023-02-25T07:42:28.903Z,11.10
2023-02-25T07:45:00.444Z,11.20
2023-02-25T07:47:30.014Z,11.20
2023-02-25T07:49:58.316Z,11.20
2023-02-25T07:52:26.527Z,11.30
2023-02-25T07:54:54.704Z,11.30
2023-02-25T07:57:23.447Z,11.30
2023-02-25T07:59:51.687Z,11.40
2023-02-25T08:02:21.565Z,11.40
2023-02-25T08:04:50.003Z,11.40
2023-02-25T08:07:18.366Z,11.50
2023-02-25T08:09:46.610Z,11.50
2023-02-25T08:12:14.872Z,11.60
2023-02-25T08:14:43.139Z,11.60
2023-02-25T08:17:13.224Z,11.60
2023-02-25T08:19:43.370Z,11.70
2023-02-25T08:22:11.934Z,11.70
2023-02-25T08:24:40.373Z,11.80
2023-02-25T08:27:09.845Z,11.80
2023-02-25T08:29:38.786Z,11.90
2023-02-25T08:32:07.870Z,11.90
2023-02-25T08:34:36.580Z,11.90
2023-02-25T08:37:06.124Z,11.90
2023-02-25T08:39:35.983Z,12.00
2023-02-25T08:42:04.287Z,12.00
2023-02-25T08:44:32.422Z,12.10
2023-02-25T08:47:00.666Z,12.10
2023-02-25T08:49:28.889Z,12.10
2023-02-25T08:51:57.137Z,12.10
2023-02-25T08:54:26.789Z,12.10
2023-02-25T08:56:55.597Z,12.20
2023-02-25T08:59:24.051Z,12.30
2023-02-25T09:01:54.137Z,12.30
2023-02-25T09:04:25.091Z,12.30
2023-02-25T09:06:54.250Z,12.30
2023-02-25T09:09:23.574Z,12.40
2023-02-25T09:11:54.122Z,12.40
2023-02-25T09:14:22.962Z,12.40
2023-02-25T09:16:51.209Z,12.50
2023-02-25T09:19:20.804Z,12.50
2023-02-25T09:21:49.193Z,12.60
2023-02-25T09:24:18.052Z,12.60
2023-02-25T09:26:46.810Z,12.70
2023-02-25T09:29:16.478Z,12.80
2023-02-25T09:31:44.850Z,12.90
2023-02-25T09:34:15.755Z,12.90
2023-02-25T09:36:44.399Z,13.00
2023-02-25T09:39:12.895Z,13.00
2023-02-25T09:41:51.902Z,13.10
2023-02-25T09:44:26.972Z,13.10
2023-02-25T09:46:58.928Z,13.10
2023-02-25T09:49:33.020Z,13.20
2023-02-25T09:52:07.048Z,13.20
2023-02-25T09:54:41.463Z,13.30
2023-02-25T09:57:14.312Z,13.30
2023-02-25T09:59:43.904Z,13.30
2023-02-25T10:02:27.746Z,13.30
2023-02-25T10:05:14.872Z,13.30
2023-02-25T10:07:57.389Z,13.40
2023-02-25T10:10:32.222Z,13.40
2023-02-25T10:13:13.174Z,13.40
2023-02-25T10:15:54.729Z,13.50
2023-02-25T10:18:39.453Z,13.50
2023-02-25T10:21:15.977Z,13.50
2023-02-25T10:24:00.978Z,13.50
2023-02-25T10:26:32.736Z,13.50
2023-02-25T10:29:05.461Z,13.60
2023-02-25T10:31:35.341Z,13.60
2023-02-25T10:34:21.316Z,13.60
2023-02-25T10:36:55.452Z,13.70
2023-02-25T10:39:24.153Z,13.70
2023-02-25T10:41:52.620Z,13.70
2023-02-25T10:44:21.541Z,13.70
2023-02-25T10:46:55.612Z,13.70
2023-02-25T10:49:26.506Z,13.80
2023-02-25T10:52:04.185Z,13.80
2023-02-25T10:54:34.087Z,13.80
2023-02-25T10:57:09.501Z,13.80
2023-02-25T10:59:39.648Z,13.80
2023-02-25T11:02:23.427Z,13.80
2023-02-25T11:04:53.295Z,13.80
2023-02-25T11:07:29.368Z,13.90
2023-02-25T11:10:16.749Z,13.90
2023-02-25T11:12:47.215Z,13.90
2023-02-25T11:15:46.097Z,13.90
2023-02-25T11:18:23.110Z,13.90
2023-02-25T11:20:56.036Z,13.90
2023-02-25T11:23:28.180Z,13.90
2023-02-25T11:25:57.493Z,13.90
2023-02-25T11:28:31.291Z,14.00
2023-02-25T11:31:10.602Z,14.00
2023-02-25T11:33:44.087Z,14.00
2023-02-25T11:36:13.513Z,14.00
2023-02-25T11:38:44.070Z,14.00
2023-02-25T11:41:22.316Z,14.10
2023-02-25T11:43:51.618Z,14.10
2023-02-25T11:46:24.003Z,14.10
2023-02-25T11:48:55.981Z,14.10
2023-02-25T11:51:30.683Z,14.10
2023-02-25T11:54:21.018Z,14.10
2023-02-25T11:56:52.503Z,14.00
2023-02-25T11:59:32.683Z,14.00
2023-02-25T12:02:18.114Z,14.00
2023-02-25T12:05:16.785Z,14.00
2023-02-25T12:08:14.206Z,14.00
2023-02-25T12:11:15.933Z,14.10
2023-02-25T12:14:47.257Z,14.10
2023-02-25T12:17:42.119Z,14.10
2023-02-25T12:20:51.238Z,14.10
2023-02-25T12:23:49.128Z,14.10
2023-02-25T12:26:31.830Z,14.10
2023-02-25T12:29:14.096Z,14.20
2023-02-25T12:32:03.415Z,14.20
2023-02-25T12:35:00.888Z,14.20
2023-02-25T12:37:43.209Z,14.20
2023-02-25T12:40:33.775Z,14.20
2023-02-25T12:43:13.580Z,14.20
2023-02-25T12:45:55.113Z,14.20
2023-02-25T12:48:45.240Z,14.30
2023-02-25T12:51:29.392Z,14.30
2023-02-25T12:54:12.229Z,14.40
2023-02-25T12:57:01.411Z,14.30
2023-02-25T13:00:02.155Z,14.30
2023-02-25T13:02:57.792Z,14.40
2023-02-25T13:06:08.685Z,14.40
2023-02-25T13:09:18.727Z,14.40
2023-02-25T13:12:11.501Z,14.40
2023-02-25T13:14:58.006Z,14.40
2023-02-25T13:17:36.612Z,14.50
2023-02-25T13:20:51.828Z,14.50
2023-02-25T13:23:33.176Z,14.50
2023-02-25T13:26:13.733Z,14.50
2023-02-25T13:29:01.907Z,14.50
2023-02-25T13:31:40.298Z,14.50
2023-02-25T13:34:22.808Z,14.60
2023-02-25T13:37:05.645Z,14.60
2023-02-25T13:39:59.852Z,14.60
2023-02-25T13:42:42.617Z,14.60
2023-02-25T13:45:36.996Z,14.60
2023-02-25T13:48:24.303Z,14.60
2023-02-25T13:51:04.390Z,14.60
2023-02-25T13:53:45.329Z,14.60
2023-02-25T13:56:39.688Z,14.60
2023-02-25T13:59:19.575Z,14.70
2023-02-25T14:02:14.796Z,14.60
2023-02-25T14:05:17.489Z,14.60
2023-02-25T14:08:13.140Z,14.60
2023-02-25T14:10:54.704Z,14.60
2023-02-25T14:13:48.296Z,14.60
2023-02-25T14:16:37.658Z,14.70
2023-02-25T14:19:26.226Z,14.70
2023-02-25T14:22:28.382Z,14.70
2023-02-25T14:25:08.062Z,14.60
2023-02-25T14:27:47.947Z,14.60
2023-02-25T14:30:31.898Z,14.60
2023-02-25T14:33:22.774Z,14.50
2023-02-25T14:36:06.770Z,14.60
2023-02-25T14:38:59.510Z,14.60
2023-02-25T14:41:36.698Z,14.50
2023-02-25T14:44:12.377Z,14.50
2023-02-25T14:46:44.122Z,14.40
2023-02-25T14:49:18.376Z,14.40
2023-02-25T14:52:02.387Z,14.40
2023-02-25T14:55:06.534Z,14.40
2023-02-25T14:58:10.340Z,14.40
2023-02-25T15:00:59.783Z,14.40
2023-02-25T15:03:46.341Z,14.40
2023-02-25T15:06:27.798Z,14.40
2023-02-25T15:09:20.878Z,14.40
2023-02-25T15:12:16.664Z,14.50
2023-02-25T15:15:04.231Z,14.40
2023-02-25T15:18:02.416Z,14.40
2023-02-25T15:20:38.957Z,14.50
2023-02-25T15:23:09.953Z,14.50
2023-02-25T15:25:50.737Z,14.50
2023-02-25T15:28:38.994Z,14.60
2023-02-25T15:31:38.899Z,14.60
2023-02-25T15:34:53.330Z,14.60
2023-02-25T15:37:59.769Z,14.60
2023-02-25T15:40:51.059Z,14.60
2023-02-25T15:43:44.955Z,14.60
2023-02-25T15:46:44.397Z,14.60
2023-02-25T15:49:29.177Z,14.50
2023-02-25T15:51:58.883Z,14.50
2023-02-25T15:54:49.790Z,14.50
2023-02-25T15:57:41.955Z,14.50
2023-02-25T16:00:54.878Z,14.50
2023-02-25T16:03:42.309Z,14.50
2023-02-25T16:06:17.144Z,14.50
2023-02-25T16:08:51.736Z,14.50
2023-02-25T16:11:34.632Z,14.50
2023-02-25T16:14:08.436Z,14.50
2023-02-25T16:16:39.555Z,14.50
2023-02-25T16:19:08.981Z,14.40
2023-02-25T16:21:42.249Z,14.40
2023-02-25T16:24:11.696Z,14.40
2023-02-25T16:26:50.023Z,14.40
2023-02-25T16:29:37.983Z,14.40
2023-02-25T16:32:11.294Z,14.40
2023-02-25T16:34:47.705Z,14.40
2023-02-25T16:37:23.135Z,14.30
2023-02-25T16:39:51.489Z,14.30
2023-02-25T16:42:21.379Z,14.30
2023-02-25T16:44:58.848Z,14.30
2023-02-25T16:47:29.827Z,14.20
2023-02-25T16:50:01.038Z,14.20
2023-02-25T16:52:32.832Z,14.20
2023-02-25T16:55:05.703Z,14.10
2023-02-25T16:57:36.376Z,14.10
2023-02-25T17:00:25.388Z,14.10
2023-02-25T17:02:54.293Z,14.10
2023-02-25T17:05:30.196Z,14.10
2023-02-25T17:08:01.237Z,14.10
2023-02-25T17:10:32.022Z,14.10
2023-02-25T17:13:03.648Z,14.10
2023-02-25T17:15:36.774Z,14.10
2023-02-25T17:18:11.406Z,14.20
2023-02-25T17:20:39.815Z,14.20
2023-02-25T17:23:13.347Z,14.20
2023-02-25T17:25:45.965Z,14.20
2023-02-25T17:28:21.981Z,14.20
2023-02-25T17:30:52.233Z,14.20
2023-02-25T17:33:26.236Z,14.30
2023-02-25T17:35:58.338Z,14.30
2023-02-25T17:38:29.043Z,14.30
2023-02-25T17:40:59.328Z,14.30
2023-02-25T17:43:35.545Z,14.30
2023-02-25T17:46:17.039Z,14.30
2023-02-25T17:48:51.564Z,14.30
2023-02-25T17:51:20.305Z,14.30
2023-02-25T17:53:51.243Z,14.30
2023-02-25T17:56:24.760Z,14.20
2023-02-25T17:58:54.968Z,14.20
2023-02-25T18:01:28.871Z,14.20
2023-02-25T18:03:57.848Z,14.20
2023-02-25T18:06:32.747Z,14.30
2023-02-25T18:09:02.910Z,14.30
2023-02-25T18:11:33.909Z,14.30
2023-02-25T18:14:05.084Z,14.30
2023-02-25T18:16:43.033Z,14.30
2023-02-25T18:19:27.093Z,14.30
2023-02-25T18:21:56.105Z,14.30
2023-02-25T18:24:27.606Z,14.30
2023-02-25T18:27:07.838Z,14.30
2023-02-25T18:29:36.276Z,14.30
2023-02-25T18:32:06.182Z,14.20
2023-02-25T18:34:34.546Z,14.20
2023-02-25T18:37:03.943Z,14.20
2023-02-25T18:39:32.319Z,14.20
2023-02-25T18:42:00.520Z,14.20
2023-02-25T18:44:28.789Z,14.20
2023-02-25T18:46:56.901Z,14.20
2023-02-25T18:49:26.422Z,14.20
2023-02-25T18:51:54.677Z,14.20
2023-02-25T18:54:22.883Z,14.20
2023-02-25T18:56:51.153Z,14.20
2023-02-25T18:59:19.375Z,14.20
2023-02-25T19:01:47.705Z,14.20
2023-02-25T19:04:18.060Z,14.20
2023-02-25T19:06:47.848Z,14.10
2023-02-25T19:09:16.116Z,14.10
2023-02-25T19:11:44.306Z,14.10
2023-02-25T19:14:19.753Z,14.10
2023-02-25T19:16:47.986Z,14.10
2023-02-25T19:19:16.402Z,14.10
2023-02-25T19:21:44.555Z,14.10
2023-02-25T19:24:14.573Z,14.10
2023-02-25T19:26:44.181Z,14.10
2023-02-25T19:29:12.375Z,14.10
2023-02-25T19:31:40.667Z,14.10
2023-02-25T19:34:09.472Z,14.10
2023-02-25T19:36:37.746Z,14.10
2023-02-25T19:39:06.704Z,14.00
2023-02-25T19:41:38.494Z,14.00
2023-02-25T19:44:06.915Z,14.00
2023-02-25T19:46:35.109Z,14.00
2023-02-25T19:49:03.281Z,14.00
2023-02-25T19:51:31.510Z,14.00
2023-02-25T19:53:59.837Z,13.90
2023-02-25T19:56:28.053Z,13.90
2023-02-25T19:58:59.833Z,13.90
2023-02-25T20:01:28.221Z,13.90
2023-02-25T20:03:56.437Z,13.90
2023-02-25T20:06:26.223Z,13.90
2023-02-25T20:08:55.873Z,13.90
2023-02-25T20:11:24.606Z,13.90
2023-02-25T20:13:52.998Z,13.90
2023-02-25T20:16:24.543Z,13.90
2023-02-25T20:18:53.328Z,13.90
2023-02-25T20:21:21.910Z,13.80
2023-02-25T20:23:50.165Z,13.70
2023-02-25T20:26:20.075Z,13.60
2023-02-25T20:28:48.532Z,13.60
2023-02-25T20:31:19.428Z,13.50
2023-02-25T20:33:50.008Z,13.50
2023-02-25T20:36:21.766Z,13.50
2023-02-25T20:39:12.610Z,13.50
2023-02-25T20:41:42.174Z,13.40
2023-02-25T20:44:11.549Z,13.30
2023-02-25T20:46:41.028Z,13.30
2023-02-25T20:49:14.629Z,13.30
2023-02-25T20:51:45.029Z,13.40
2023-02-25T20:54:14.890Z,13.40
2023-02-25T20:56:43.788Z,13.40
2023-02-25T20:59:13.268Z,13.40
2023-02-25T21:01:41.842Z,13.40
2023-02-25T21:04:11.905Z,13.40
2023-02-25T21:06:41.086Z,13.40
2023-02-25T21:09:10.260Z,13.50
2023-02-25T21:11:38.402Z,13.50
2023-02-25T21:14:10.275Z,13.40
2023-02-25T21:16:39.383Z,13.50
2023-02-25T21:19:08.345Z,13.50
2023-02-25T21:21:38.560Z,13.50
2023-02-25T21:24:07.942Z,13.50
2023-02-25T21:26:39.371Z,13.50
2023-02-25T21:29:08.136Z,13.50
2023-02-25T21:31:36.563Z,13.50
2023-02-25T21:34:05.670Z,13.50
2023-02-25T21:36:34.465Z,13.40
2023-02-25T21:39:04.886Z,13.40
2023-02-25T21:41:32.985Z,13.40
2023-02-25T21:44:01.217Z,13.50
2023-02-25T21:46:29.892Z,13.50
2023-02-25T21:48:58.153Z,13.50
2023-02-25T21:51:27.580Z,13.40
2023-02-25T21:53:56.665Z,13.40
2023-02-25T21:56:26.931Z,13.50
2023-02-25T21:58:56.171Z,13.40
2023-02-25T22:01:26.397Z,13.40
2023-02-25T22:03:56.209Z,13.40
2023-02-25T22:06:25.475Z,13.40
2023-02-25T22:08:55.005Z,13.40
2023-02-25T22:11:26.175Z,13.40
2023-02-25T22:13:54.719Z,13.40
2023-02-25T22:16:24.119Z,13.40
2023-02-25T22:18:53.160Z,13.40
2023-02-25T22:21:23.737Z,13.40
2023-02-25T22:23:53.669Z,13.40
2023-02-25T22:26:24.040Z,13.40
2023-02-25T22:28:56.747Z,13.40
2023-02-25T22:31:25.958Z,13.40
2023-02-25T22:33:54.260Z,13.40
2023-02-25T22:36:22.883Z,13.40
2023-02-25T22:38:51.416Z,13.40
2023-02-25T22:41:21.527Z,13.40
2023-02-25T22:43:50.469Z,13.40
2023-02-25T22:46:25.122Z,13.40
2023-02-25T22:48:54.675Z,13.40
2023-02-25T22:51:25.169Z,13.40
2023-02-25T22:53:54.112Z,13.40
2023-02-25T22:56:22.806Z,13.40
2023-02-25T22:58:51.995Z,13.40
2023-02-25T23:01:23.434Z,13.40
2023-02-25T23:03:52.774Z,13.40
2023-02-25T23:06:34.296Z,13.40
2023-02-25T23:09:10.660Z,13.40
2023-02-25T23:11:41.829Z,13.40
2023-02-25T23:14:10.386Z,13.40
2023-02-25T23:16:42.528Z,13.40
2023-02-25T23:19:14.363Z,13.30
2023-02-25T23:21:43.123Z,13.40
2023-02-25T23:24:16.268Z,13.40
2023-02-25T23:26:45.954Z,13.40
2023-02-25T23:29:15.009Z,13.30
2023-02-25T23:31:46.996Z,13.40
2023-02-25T23:34:18.533Z,13.40
2023-02-25T23:36:47.343Z,13.40
2023-02-25T23:39:16.393Z,13.30
2023-02-25T23:41:44.870Z,13.30
2023-02-25T23:44:14.447Z,13.30
2023-02-25T23:46:45.361Z,13.40
2023-02-25T23:49:16.143Z,13.40
2023-02-25T23:51:45.291Z,13.40
2023-02-25T23:54:15.970Z,13.40
2023-02-25T23:56:44.329Z,13.40
2023-02-25T23:59:12.637Z,13.40
